createdAt,value
2019-06-10T00:00:16.256Z,0.00
2019-06-10T00:02:10.979Z,0.00
2019-06-10T00:03:11.593Z,0.00
2019-06-10T00:05:10.837Z,0.00
2019-06-10T00:06:08.468Z,0.00
2019-06-10T00:08:03.928Z,0.00
2019-06-10T00:10:17.132Z,0.00
2019-06-10T00:11:16.683Z,0.00
2019-06-10T00:13:11.921Z,0.00
2019-06-10T00:14:10.745Z,0.00
2019-06-10T00:16:11.297Z,0.00
2019-06-10T00:17:06.732Z,0.00
2019-06-10T00:18:26.285Z,0.00
2019-06-10T00:19:06.823Z,0.00
2019-06-10T00:20:08.294Z,0.00
2019-06-10T00:21:08.269Z,0.00
2019-06-10T00:22:08.409Z,0.00
2019-06-10T00:23:08.294Z,0.00
2019-06-10T00:24:06.837Z,0.00
2019-06-10T00:25:08.235Z,0.00
2019-06-10T00:26:08.047Z,0.00
2019-06-10T00:27:07.474Z,0.00
2019-06-10T00:28:06.099Z,0.00
2019-06-10T00:29:07.923Z,0.00
2019-06-10T00:30:08.119Z,0.00
2019-06-10T00:31:07.016Z,0.00
2019-06-10T00:32:08.537Z,0.00
2019-06-10T00:33:08.019Z,0.00
2019-06-10T00:34:06.612Z,0.00
2019-06-10T00:35:06.532Z,0.00
2019-06-10T00:36:08.619Z,0.00
2019-06-10T00:37:09.214Z,0.00
2019-06-10T00:38:07.249Z,0.00
2019-06-10T00:39:06.856Z,0.00
2019-06-10T00:40:07.129Z,0.00
2019-06-10T00:41:07.240Z,0.00
2019-06-10T00:42:07.941Z,0.00
2019-06-10T00:43:06.921Z,0.00
2019-06-10T00:44:06.839Z,0.00
2019-06-10T00:45:07.525Z,0.00
2019-06-10T00:46:08.598Z,0.00
2019-06-10T00:47:08.673Z,0.00
2019-06-10T00:48:15.753Z,0.00
2019-06-10T00:49:08.146Z,0.00
2019-06-10T00:50:08.616Z,0.00
2019-06-10T00:51:07.336Z,0.00
2019-06-10T00:52:07.424Z,0.00
2019-06-10T00:53:07.582Z,0.00
2019-06-10T00:54:08.327Z,0.00
2019-06-10T00:55:06.514Z,0.00
2019-06-10T00:56:06.779Z,0.00
2019-06-10T00:57:07.363Z,0.00
2019-06-10T00:58:07.571Z,0.00
2019-06-10T00:59:05.839Z,0.00
2019-06-10T01:00:14.723Z,0.00
2019-06-10T01:01:05.976Z,0.00
2019-06-10T01:02:06.466Z,0.00
2019-06-10T01:03:28.037Z,0.00
2019-06-10T01:04:06.916Z,0.00
2019-06-10T01:05:07.313Z,0.00
2019-06-10T01:06:06.460Z,0.00
2019-06-10T01:07:06.434Z,0.00
2019-06-10T01:08:06.648Z,0.00
2019-06-10T01:09:06.718Z,0.00
2019-06-10T01:10:07.026Z,0.00
2019-06-10T01:11:10.273Z,0.00
2019-06-10T01:12:05.288Z,0.00
2019-06-10T01:13:07.400Z,0.00
2019-06-10T01:14:07.379Z,0.00
2019-06-10T01:15:07.421Z,0.00
2019-06-10T01:16:27.282Z,0.00
2019-06-10T01:17:05.491Z,0.00
2019-06-10T01:18:05.542Z,0.00
2019-06-10T01:19:07.767Z,0.00
2019-06-10T01:20:05.813Z,0.00
2019-06-10T01:21:07.924Z,0.00
2019-06-10T01:22:06.253Z,0.00
2019-06-10T01:23:05.268Z,0.00
2019-06-10T01:24:07.100Z,0.00
2019-06-10T01:25:05.315Z,0.00
2019-06-10T01:26:07.613Z,0.00
2019-06-10T01:27:07.529Z,0.00
2019-06-10T01:28:07.634Z,0.00
2019-06-10T01:29:05.675Z,0.00
2019-06-10T01:30:10.490Z,0.00
2019-06-10T01:31:09.325Z,0.00
2019-06-10T01:32:05.283Z,0.00
2019-06-10T01:33:06.281Z,0.00
2019-06-10T01:34:05.469Z,0.00
2019-06-10T01:35:07.029Z,0.00
2019-06-10T01:36:05.524Z,0.00
2019-06-10T01:37:07.039Z,0.00
2019-06-10T01:38:05.870Z,0.00
2019-06-10T01:39:07.036Z,0.00
2019-06-10T01:40:07.960Z,0.00
2019-06-10T01:41:06.207Z,0.00
2019-06-10T01:42:06.193Z,0.00
2019-06-10T01:43:06.320Z,0.00
2019-06-10T01:44:06.385Z,0.00
2019-06-10T01:45:07.038Z,0.00
2019-06-10T01:46:05.210Z,0.00
2019-06-10T01:47:05.189Z,0.00
2019-06-10T01:48:05.195Z,0.00
2019-06-10T01:49:05.192Z,0.00
2019-06-10T01:50:05.192Z,0.00
2019-06-10T01:51:05.184Z,0.00
2019-06-10T01:52:28.048Z,0.00
2019-06-10T01:53:07.316Z,0.00
2019-06-10T01:54:07.435Z,0.00
2019-06-10T01:55:07.567Z,0.00
2019-06-10T01:56:05.176Z,0.00
2019-06-10T01:57:05.172Z,0.00
2019-06-10T01:58:07.788Z,0.00
2019-06-10T01:59:05.168Z,0.00
2019-06-10T02:00:09.336Z,0.00
2019-06-10T02:01:08.281Z,0.00
2019-06-10T02:02:07.052Z,0.00
2019-06-10T02:03:08.312Z,0.00
2019-06-10T02:04:05.146Z,0.00
2019-06-10T02:05:05.141Z,0.00
2019-06-10T02:06:05.140Z,0.00
2019-06-10T02:07:07.049Z,0.00
2019-06-10T02:08:05.129Z,0.00
2019-06-10T02:09:07.063Z,0.00
2019-06-10T02:10:07.055Z,0.00
2019-06-10T02:11:05.123Z,0.00
2019-06-10T02:12:07.053Z,0.00
2019-06-10T02:13:07.193Z,0.00
2019-06-10T02:14:05.105Z,0.00
2019-06-10T02:15:05.108Z,0.00
2019-06-10T02:16:05.102Z,0.00
2019-06-10T02:17:05.103Z,0.00
2019-06-10T02:18:05.107Z,0.00
2019-06-10T02:19:05.097Z,0.00
2019-06-10T02:20:07.072Z,0.00
2019-06-10T02:21:05.081Z,0.00
2019-06-10T02:22:05.105Z,0.00
2019-06-10T02:23:05.091Z,0.00
2019-06-10T02:24:05.080Z,0.00
2019-06-10T02:25:07.070Z,0.00
2019-06-10T02:26:05.074Z,0.00
2019-06-10T02:27:05.070Z,0.00
2019-06-10T02:28:06.570Z,0.00
2019-06-10T02:29:05.070Z,0.00
2019-06-10T02:30:14.806Z,0.00
2019-06-10T02:31:05.066Z,0.00
2019-06-10T02:32:05.342Z,0.00
2019-06-10T02:33:06.565Z,0.00
2019-06-10T02:34:17.517Z,0.00
2019-06-10T02:35:59.464Z,0.00
2019-06-10T02:36:59.418Z,0.00
2019-06-10T02:38:54.171Z,0.00
2019-06-10T02:39:54.334Z,0.00
2019-06-10T02:41:48.227Z,0.00
2019-06-10T02:42:48.762Z,0.00
2019-06-10T02:44:44.594Z,0.00
2019-06-10T02:45:44.519Z,0.00
2019-06-10T02:47:38.102Z,0.00
2019-06-10T02:48:35.958Z,0.00
2019-06-10T02:50:35.596Z,0.00
2019-06-10T02:51:32.226Z,0.00
2019-06-10T02:53:30.751Z,0.00
2019-06-10T02:54:31.282Z,0.00
2019-06-10T02:56:20.018Z,4.00
2019-06-10T02:57:24.618Z,4.00
2019-06-10T02:59:13.564Z,4.00
2019-06-10T03:00:21.813Z,0.00
2019-06-10T03:02:07.797Z,4.00
2019-06-10T03:03:07.646Z,4.00
2019-06-10T03:05:04.239Z,4.00
2019-06-10T03:06:05.766Z,8.00
2019-06-10T03:07:55.395Z,8.00
2019-06-10T03:08:55.387Z,8.00
2019-06-10T03:10:49.790Z,8.00
2019-06-10T03:11:53.308Z,12.00
2019-06-10T03:13:44.203Z,16.00
2019-06-10T03:14:43.334Z,16.00
2019-06-10T03:16:38.275Z,20.00
2019-06-10T03:17:37.709Z,20.00
2019-06-10T03:19:44.173Z,24.00
2019-06-10T03:20:33.602Z,28.00
2019-06-10T03:22:28.469Z,36.00
2019-06-10T03:23:28.012Z,40.00
2019-06-10T03:25:23.317Z,44.00
2019-06-10T03:26:23.967Z,52.00
2019-06-10T03:28:17.350Z,60.00
2019-06-10T03:29:18.546Z,64.00
2019-06-10T03:30:22.020Z,68.00
2019-06-10T03:31:18.353Z,72.00
2019-06-10T03:32:17.628Z,76.00
2019-06-10T03:33:17.679Z,76.00
2019-06-10T03:34:20.092Z,76.00
2019-06-10T03:35:17.357Z,76.00
2019-06-10T03:36:16.242Z,76.00
2019-06-10T03:37:18.296Z,80.00
2019-06-10T03:38:18.264Z,84.00
2019-06-10T03:39:16.250Z,88.00
2019-06-10T03:40:16.457Z,92.00
2019-06-10T03:41:18.565Z,92.00
2019-06-10T03:42:18.794Z,92.00
2019-06-10T03:43:16.699Z,92.00
2019-06-10T03:44:16.903Z,100.00
2019-06-10T03:45:19.034Z,104.00
2019-06-10T03:46:17.235Z,108.00
2019-06-10T03:47:18.889Z,112.00
2019-06-10T03:48:17.165Z,120.00
2019-06-10T03:49:17.124Z,124.00
2019-06-10T03:50:17.182Z,132.00
2019-06-10T03:51:19.182Z,136.00
2019-06-10T03:52:19.174Z,144.00
2019-06-10T03:53:17.156Z,156.00
2019-06-10T03:54:18.062Z,164.00
2019-06-10T03:55:19.214Z,180.00
2019-06-10T03:56:19.072Z,196.00
2019-06-10T03:57:18.899Z,208.00
2019-06-10T03:58:17.802Z,220.00
2019-06-10T03:59:19.805Z,232.00
2019-06-10T04:00:17.498Z,248.00
2019-06-10T04:01:17.420Z,268.00
2019-06-10T04:02:16.186Z,284.00
2019-06-10T04:03:17.274Z,292.00
2019-06-10T04:04:17.824Z,296.00
2019-06-10T04:05:17.373Z,316.00
2019-06-10T04:06:17.815Z,348.00
2019-06-10T04:07:17.991Z,388.00
2019-06-10T04:08:17.816Z,440.00
2019-06-10T04:09:17.228Z,488.00
2019-06-10T04:10:16.051Z,508.00
2019-06-10T04:11:17.813Z,504.00
2019-06-10T04:12:16.040Z,476.00
2019-06-10T04:13:16.044Z,472.00
2019-06-10T04:14:17.803Z,496.00
2019-06-10T04:15:16.024Z,552.00
2019-06-10T04:16:16.033Z,672.00
2019-06-10T04:17:17.837Z,804.00
2019-06-10T04:18:16.025Z,940.00
2019-06-10T04:19:25.821Z,1036.00
2019-06-10T04:21:12.859Z,1116.00
2019-06-10T04:22:13.038Z,1128.00
2019-06-10T04:24:06.920Z,1168.00
2019-06-10T04:25:06.508Z,1188.00
2019-06-10T04:27:02.754Z,1340.00
2019-06-10T04:28:03.024Z,1328.00
2019-06-10T04:29:55.579Z,1276.00
2019-06-10T04:30:55.527Z,1236.00
2019-06-10T04:32:52.913Z,1312.00
2019-06-10T04:33:52.371Z,1372.00
2019-06-10T04:35:44.535Z,1424.00
2019-06-10T04:36:44.525Z,1500.00
2019-06-10T04:38:38.918Z,1752.00
2019-06-10T04:39:38.917Z,1832.00
2019-06-10T04:41:33.459Z,1800.00
2019-06-10T04:42:34.344Z,1800.00
2019-06-10T04:44:28.156Z,1712.00
2019-06-10T04:45:28.024Z,1852.00
2019-06-10T04:47:23.750Z,1808.00
2019-06-10T04:48:23.547Z,1816.00
2019-06-10T04:50:26.167Z,1800.00
2019-06-10T04:51:17.039Z,1792.00
2019-06-10T04:53:12.895Z,1816.00
2019-06-10T04:54:13.383Z,1852.00
2019-06-10T04:56:05.799Z,1904.00
2019-06-10T04:57:05.790Z,1928.00
2019-06-10T04:59:00.178Z,2008.00
2019-06-10T05:00:02.567Z,1996.00
2019-06-10T05:01:53.564Z,2060.00
2019-06-10T05:02:54.116Z,2124.00
2019-06-10T05:04:47.940Z,2240.00
2019-06-10T05:05:47.925Z,2232.00
2019-06-10T05:07:42.965Z,2260.00
2019-06-10T05:08:42.785Z,2264.00
2019-06-10T05:10:36.710Z,2240.00
2019-06-10T05:11:36.674Z,2216.00
2019-06-10T05:13:33.265Z,2176.00
2019-06-10T05:14:33.181Z,2176.00
2019-06-10T05:16:27.532Z,2272.00
2019-06-10T05:17:27.475Z,2324.00
2019-06-10T05:19:19.617Z,2312.00
2019-06-10T05:20:19.685Z,2260.00
2019-06-10T05:22:12.900Z,2312.00
2019-06-10T05:23:12.883Z,2428.00
2019-06-10T05:25:06.483Z,2792.00
2019-06-10T05:26:06.457Z,3020.00
2019-06-10T05:28:02.908Z,3220.00
2019-06-10T05:29:03.058Z,3252.00
2019-06-10T05:30:55.430Z,3184.00
2019-06-10T05:31:55.419Z,3124.00
2019-06-10T05:33:49.849Z,3144.00
2019-06-10T05:34:52.649Z,3196.00
2019-06-10T05:36:44.208Z,3312.00
2019-06-10T05:37:44.204Z,3300.00
2019-06-10T05:39:38.605Z,3656.00
2019-06-10T05:40:38.587Z,3824.00
2019-06-10T05:42:35.858Z,3560.00
2019-06-10T05:43:34.569Z,3540.00
2019-06-10T05:45:28.008Z,3904.00
2019-06-10T05:46:28.662Z,3956.00
2019-06-10T05:48:22.682Z,4388.00
2019-06-10T05:49:23.115Z,4488.00
2019-06-10T05:51:15.103Z,4768.00
2019-06-10T05:52:15.095Z,5128.00
2019-06-10T05:54:09.486Z,5580.00
2019-06-10T05:55:11.993Z,5324.00
2019-06-10T05:57:02.867Z,4988.00
2019-06-10T05:58:02.870Z,5232.00
2019-06-10T05:59:57.264Z,6264.00
2019-06-10T06:00:57.251Z,5896.00
2019-06-10T06:02:52.364Z,5236.00
2019-06-10T06:03:52.939Z,5648.00
2019-06-10T06:05:46.473Z,5368.00
2019-06-10T06:06:46.469Z,5568.00
2019-06-10T06:08:42.917Z,6700.00
2019-06-10T06:09:42.713Z,5456.00
2019-06-10T06:10:42.414Z,5376.00
2019-06-10T06:11:42.856Z,4272.00
2019-06-10T06:12:42.410Z,3996.00
2019-06-10T06:13:42.989Z,3984.00
2019-06-10T06:14:42.567Z,3904.00
2019-06-10T06:15:42.428Z,4076.00
2019-06-10T06:16:43.218Z,4096.00
2019-06-10T06:17:42.964Z,4040.00
2019-06-10T06:18:42.252Z,4160.00
2019-06-10T06:19:43.183Z,4340.00
2019-06-10T06:20:43.479Z,4460.00
2019-06-10T06:21:47.007Z,4480.00
2019-06-10T06:22:42.853Z,4376.00
2019-06-10T06:23:43.410Z,4316.00
2019-06-10T06:24:42.782Z,4340.00
2019-06-10T06:25:44.367Z,4396.00
2019-06-10T06:26:43.180Z,4568.00
2019-06-10T06:27:42.078Z,4508.00
2019-06-10T06:28:43.028Z,4576.00
2019-06-10T06:29:43.141Z,3972.00
2019-06-10T06:30:42.281Z,3860.00
2019-06-10T06:31:42.984Z,3788.00
2019-06-10T06:32:43.403Z,3876.00
2019-06-10T06:33:43.284Z,4144.00
2019-06-10T06:34:43.024Z,4676.00
2019-06-10T06:35:45.718Z,4424.00
2019-06-10T06:36:42.253Z,4672.00
2019-06-10T06:37:42.794Z,5356.00
2019-06-10T06:38:40.891Z,5928.00
2019-06-10T06:39:42.910Z,6436.00
2019-06-10T06:40:43.306Z,6428.00
2019-06-10T06:41:42.775Z,7440.00
2019-06-10T06:42:43.331Z,5544.00
2019-06-10T06:43:45.063Z,4952.00
2019-06-10T06:44:43.360Z,4872.00
2019-06-10T06:45:42.654Z,4856.00
2019-06-10T06:46:42.947Z,5036.00
2019-06-10T06:47:43.514Z,4996.00
2019-06-10T06:48:43.680Z,5284.00
2019-06-10T06:49:42.552Z,5344.00
2019-06-10T06:50:57.270Z,5544.00
2019-06-10T06:51:54.036Z,5872.00
2019-06-10T06:53:15.605Z,6484.00
2019-06-10T06:53:50.554Z,6572.00
2019-06-10T06:54:42.439Z,6168.00
2019-06-10T06:55:43.162Z,6376.00
2019-06-10T06:56:43.495Z,6492.00
2019-06-10T06:57:43.167Z,5720.00
2019-06-10T06:58:43.429Z,5472.00
2019-06-10T06:59:43.137Z,5560.00
2019-06-10T07:00:57.402Z,5476.00
2019-06-10T07:01:44.058Z,5300.00
2019-06-10T07:02:43.294Z,4812.00
2019-06-10T07:03:44.661Z,4968.00
2019-06-10T07:04:43.176Z,5524.00
2019-06-10T07:05:43.204Z,5556.00
2019-06-10T07:06:43.026Z,5408.00
2019-06-10T07:07:43.139Z,5208.00
2019-06-10T07:08:44.715Z,4568.00
2019-06-10T07:09:43.217Z,3740.00
2019-06-10T07:10:43.406Z,3624.00
2019-06-10T07:11:44.767Z,3732.00
2019-06-10T07:12:43.429Z,3800.00
2019-06-10T07:13:45.580Z,3668.00
2019-06-10T07:14:44.432Z,3676.00
2019-06-10T07:15:45.676Z,3808.00
2019-06-10T07:16:45.614Z,4516.00
2019-06-10T07:17:45.113Z,3624.00
2019-06-10T07:18:49.897Z,3716.00
2019-06-10T07:19:43.739Z,3988.00
2019-06-10T07:20:45.103Z,4548.00
2019-06-10T07:22:02.566Z,4864.00
2019-06-10T07:22:42.773Z,5236.00
2019-06-10T07:23:45.144Z,5552.00
2019-06-10T07:24:46.817Z,7432.00
2019-06-10T07:25:45.482Z,7688.00
2019-06-10T07:26:45.337Z,7748.00
2019-06-10T07:27:46.373Z,6720.00
2019-06-10T07:28:46.659Z,7660.00
2019-06-10T07:29:46.451Z,7748.00
2019-06-10T07:30:50.061Z,7468.00
2019-06-10T07:31:45.970Z,7396.00
2019-06-10T07:32:45.387Z,7980.00
2019-06-10T07:33:45.161Z,8728.00
2019-06-10T07:34:44.126Z,9064.00
2019-06-10T07:35:43.401Z,8880.00
2019-06-10T07:36:43.560Z,7992.00
2019-06-10T07:37:41.830Z,7592.00
2019-06-10T07:38:43.690Z,7376.00
2019-06-10T07:39:43.352Z,7404.00
2019-06-10T07:40:45.217Z,8348.00
2019-06-10T07:41:42.060Z,8296.00
2019-06-10T07:42:43.685Z,8752.00
2019-06-10T07:43:46.568Z,9156.00
2019-06-10T07:44:43.581Z,9028.00
2019-06-10T07:45:45.169Z,9480.00
2019-06-10T07:46:43.757Z,9672.00
2019-06-10T07:47:43.500Z,8480.00
2019-06-10T07:48:42.239Z,7628.00
2019-06-10T07:49:43.572Z,8592.00
2019-06-10T07:50:44.148Z,8724.00
2019-06-10T07:51:42.119Z,9404.00
2019-06-10T07:52:46.084Z,7856.00
2019-06-10T07:53:44.324Z,7812.00
2019-06-10T07:54:43.439Z,7688.00
2019-06-10T07:55:42.157Z,6852.00
2019-06-10T07:56:47.851Z,6220.00
2019-06-10T07:57:43.948Z,6080.00
2019-06-10T07:58:45.005Z,7512.00
2019-06-10T07:59:44.523Z,6240.00
2019-06-10T08:00:46.544Z,6040.00
2019-06-10T08:01:45.914Z,6124.00
2019-06-10T08:02:44.220Z,6264.00
2019-06-10T08:03:42.543Z,7700.00
2019-06-10T08:04:44.209Z,6728.00
2019-06-10T08:05:44.366Z,6532.00
2019-06-10T08:06:44.055Z,6108.00
2019-06-10T08:07:43.793Z,7644.00
2019-06-10T08:08:43.938Z,7348.00
2019-06-10T08:09:43.832Z,7164.00
2019-06-10T08:10:44.773Z,6804.00
2019-06-10T08:11:43.951Z,6244.00
2019-06-10T08:12:43.685Z,6692.00
2019-06-10T08:13:44.725Z,6396.00
2019-06-10T08:14:42.752Z,5796.00
2019-06-10T08:15:44.286Z,5240.00
2019-06-10T08:16:44.790Z,5520.00
2019-06-10T08:17:42.957Z,5860.00
2019-06-10T08:19:07.926Z,5924.00
2019-06-10T08:19:46.255Z,6992.00
2019-06-10T08:20:43.183Z,6796.00
2019-06-10T08:21:44.093Z,6200.00
2019-06-10T08:22:50.111Z,6720.00
2019-06-10T08:23:45.097Z,7268.00
2019-06-10T08:24:43.704Z,6936.00
2019-06-10T08:25:43.773Z,6676.00
2019-06-10T08:26:43.659Z,6092.00
2019-06-10T08:27:43.938Z,6260.00
2019-06-10T08:28:42.466Z,6584.00
2019-06-10T08:29:44.395Z,6172.00
2019-06-10T08:30:42.979Z,6468.00
2019-06-10T08:31:46.533Z,6084.00
2019-06-10T08:32:45.292Z,7068.00
2019-06-10T08:33:44.371Z,6904.00
2019-06-10T08:34:44.612Z,6360.00
2019-06-10T08:35:48.333Z,5500.00
2019-06-10T08:36:46.085Z,5408.00
2019-06-10T08:37:43.248Z,5548.00
2019-06-10T08:38:44.984Z,5016.00
2019-06-10T08:39:43.101Z,4096.00
2019-06-10T08:40:44.901Z,4064.00
2019-06-10T08:41:45.593Z,4348.00
2019-06-10T08:42:43.736Z,4944.00
2019-06-10T08:43:43.766Z,5740.00
2019-06-10T08:44:43.612Z,5660.00
2019-06-10T08:45:43.652Z,5700.00
2019-06-10T08:46:43.654Z,5728.00
2019-06-10T08:47:44.303Z,6004.00
2019-06-10T08:48:43.840Z,6180.00
2019-06-10T08:49:44.215Z,5920.00
2019-06-10T08:50:44.740Z,5916.00
2019-06-10T08:51:45.453Z,6128.00
2019-06-10T08:52:56.908Z,6080.00
2019-06-10T08:53:44.699Z,5436.00
2019-06-10T08:54:45.700Z,5432.00
2019-06-10T08:55:44.045Z,5376.00
2019-06-10T08:56:45.207Z,5796.00
2019-06-10T08:57:43.653Z,5640.00
2019-06-10T08:58:45.706Z,5924.00
2019-06-10T08:59:44.814Z,6232.00
2019-06-10T09:00:45.092Z,6800.00
2019-06-10T09:01:46.037Z,7040.00
2019-06-10T09:02:45.193Z,6920.00
2019-06-10T09:03:46.430Z,6856.00
2019-06-10T09:04:45.577Z,6416.00
2019-06-10T09:05:46.031Z,6520.00
2019-06-10T09:06:45.435Z,6516.00
2019-06-10T09:07:45.456Z,6428.00
2019-06-10T09:08:45.411Z,6380.00
2019-06-10T09:09:45.734Z,5940.00
2019-06-10T09:10:45.624Z,5260.00
2019-06-10T09:11:46.871Z,4916.00
2019-06-10T09:12:45.451Z,4780.00
2019-06-10T09:13:43.790Z,4864.00
2019-06-10T09:14:44.007Z,5632.00
2019-06-10T09:15:44.650Z,6040.00
2019-06-10T09:16:44.411Z,6032.00
2019-06-10T09:17:44.726Z,5864.00
2019-06-10T09:18:44.469Z,5788.00
2019-06-10T09:19:44.526Z,5816.00
2019-06-10T09:20:44.942Z,5984.00
2019-06-10T09:21:47.172Z,6204.00
2019-06-10T09:22:44.891Z,6024.00
2019-06-10T09:23:43.559Z,6076.00
2019-06-10T09:24:45.541Z,5948.00
2019-06-10T09:25:45.190Z,5228.00
2019-06-10T09:26:45.041Z,5100.00
2019-06-10T09:27:44.269Z,4668.00
2019-06-10T09:28:45.010Z,4452.00
2019-06-10T09:29:45.329Z,4728.00
2019-06-10T09:30:46.793Z,4956.00
2019-06-10T09:31:45.607Z,4352.00
2019-06-10T09:32:46.585Z,4760.00
2019-06-10T09:33:47.933Z,4920.00
2019-06-10T09:34:43.123Z,4948.00
2019-06-10T09:35:45.663Z,4492.00
2019-06-10T09:36:46.276Z,4084.00
2019-06-10T09:37:45.893Z,3928.00
2019-06-10T09:38:45.362Z,3676.00
2019-06-10T09:39:47.217Z,3592.00
2019-06-10T09:40:46.531Z,3696.00
2019-06-10T09:41:50.321Z,4092.00
2019-06-10T09:42:44.546Z,4348.00
2019-06-10T09:43:45.356Z,4228.00
2019-06-10T09:44:45.117Z,4360.00
2019-06-10T09:45:45.264Z,4400.00
2019-06-10T09:46:44.587Z,4572.00
2019-06-10T09:47:46.738Z,5144.00
2019-06-10T09:48:47.057Z,5364.00
2019-06-10T09:49:45.361Z,5476.00
2019-06-10T09:50:48.801Z,5848.00
2019-06-10T09:51:45.850Z,5784.00
2019-06-10T09:52:47.146Z,5772.00
2019-06-10T09:53:50.286Z,5456.00
2019-06-10T09:54:45.761Z,5336.00
2019-06-10T09:55:44.524Z,5276.00
2019-06-10T09:56:45.097Z,5320.00
2019-06-10T09:57:45.579Z,5348.00
2019-06-10T09:58:44.694Z,5016.00
2019-06-10T09:59:46.116Z,4488.00
2019-06-10T10:00:45.197Z,4312.00
2019-06-10T10:01:47.262Z,4292.00
2019-06-10T10:02:45.019Z,4240.00
2019-06-10T10:03:45.363Z,4348.00
2019-06-10T10:04:46.703Z,4552.00
2019-06-10T10:05:54.580Z,4696.00
2019-06-10T10:06:44.823Z,4552.00
2019-06-10T10:07:46.297Z,4300.00
2019-06-10T10:08:46.079Z,4316.00
2019-06-10T10:09:45.447Z,4896.00
2019-06-10T10:10:45.968Z,4852.00
2019-06-10T10:11:43.991Z,5004.00
2019-06-10T10:12:44.047Z,5300.00
2019-06-10T10:13:44.118Z,5780.00
2019-06-10T10:14:44.777Z,5820.00
2019-06-10T10:15:41.955Z,6000.00
2019-06-10T10:16:44.109Z,5856.00
2019-06-10T10:17:44.484Z,5792.00
2019-06-10T10:18:45.798Z,6084.00
2019-06-10T10:19:45.312Z,5420.00
2019-06-10T10:20:46.819Z,6064.00
2019-06-10T10:21:46.901Z,7708.00
2019-06-10T10:22:44.078Z,8136.00
2019-06-10T10:23:56.820Z,8316.00
2019-06-10T10:24:42.935Z,8468.00
2019-06-10T10:25:44.921Z,8416.00
2019-06-10T10:26:48.231Z,8212.00
2019-06-10T10:27:45.551Z,7816.00
2019-06-10T10:28:42.859Z,7648.00
2019-06-10T10:29:45.401Z,8084.00
2019-06-10T10:30:43.562Z,8180.00
2019-06-10T10:31:45.012Z,8236.00
2019-06-10T10:32:47.070Z,8220.00
2019-06-10T10:33:42.614Z,8704.00
2019-06-10T10:34:43.765Z,8940.00
2019-06-10T10:35:43.167Z,8924.00
2019-06-10T10:36:45.389Z,8556.00
2019-06-10T10:37:44.574Z,7912.00
2019-06-10T10:38:42.582Z,7408.00
2019-06-10T10:39:45.148Z,6920.00
2019-06-10T10:40:43.967Z,6164.00
2019-06-10T10:41:43.173Z,5408.00
2019-06-10T10:42:48.153Z,5452.00
2019-06-10T10:43:43.674Z,5336.00
2019-06-10T10:44:46.643Z,5396.00
2019-06-10T10:45:47.311Z,5568.00
2019-06-10T10:46:44.382Z,5928.00
2019-06-10T10:47:44.890Z,6284.00
2019-06-10T10:48:42.956Z,6628.00
2019-06-10T10:49:44.922Z,7016.00
2019-06-10T10:51:04.633Z,7260.00
2019-06-10T10:51:42.899Z,7320.00
2019-06-10T10:52:42.845Z,7108.00
2019-06-10T10:53:46.815Z,6812.00
2019-06-10T10:54:43.211Z,6828.00
2019-06-10T10:55:44.059Z,7116.00
2019-06-10T10:56:43.637Z,7736.00
2019-06-10T10:57:43.149Z,7976.00
2019-06-10T10:58:43.601Z,8004.00
2019-06-10T10:59:43.554Z,8120.00
2019-06-10T11:00:44.781Z,8388.00
2019-06-10T11:01:42.745Z,8636.00
2019-06-10T11:02:43.155Z,8752.00
2019-06-10T11:03:44.944Z,8688.00
2019-06-10T11:04:42.970Z,8480.00
2019-06-10T11:05:44.744Z,8400.00
2019-06-10T11:06:43.034Z,8408.00
2019-06-10T11:07:42.398Z,8332.00
2019-06-10T11:08:44.151Z,8672.00
2019-06-10T11:09:42.542Z,8836.00
2019-06-10T11:10:45.338Z,8988.00
2019-06-10T11:11:44.020Z,8664.00
2019-06-10T11:12:42.954Z,8348.00
2019-06-10T11:13:43.243Z,8344.00
2019-06-10T11:14:42.487Z,8700.00
2019-06-10T11:15:43.417Z,8840.00
2019-06-10T11:16:43.133Z,8116.00
2019-06-10T11:17:42.660Z,7164.00
2019-06-10T11:18:42.346Z,6864.00
2019-06-10T11:19:42.021Z,6996.00
2019-06-10T11:20:42.027Z,7384.00
2019-06-10T11:21:42.705Z,7564.00
2019-06-10T11:22:43.391Z,8212.00
2019-06-10T11:23:43.714Z,8756.00
2019-06-10T11:24:44.591Z,8504.00
2019-06-10T11:25:43.145Z,7796.00
2019-06-10T11:26:43.123Z,7748.00
2019-06-10T11:27:43.142Z,7864.00
2019-06-10T11:28:43.094Z,8324.00
2019-06-10T11:29:42.326Z,8656.00
2019-06-10T11:30:42.600Z,8304.00
2019-06-10T11:31:42.700Z,7384.00
2019-06-10T11:32:43.219Z,6704.00
2019-06-10T11:33:43.464Z,6168.00
2019-06-10T11:34:42.881Z,5740.00
2019-06-10T11:35:42.812Z,5284.00
2019-06-10T11:36:42.634Z,4932.00
2019-06-10T11:37:42.824Z,4452.00
2019-06-10T11:38:42.119Z,3924.00
2019-06-10T11:39:42.135Z,3628.00
2019-06-10T11:40:42.859Z,3748.00
2019-06-10T11:41:43.123Z,4396.00
2019-06-10T11:42:43.573Z,5588.00
2019-06-10T11:43:42.965Z,6588.00
2019-06-10T11:44:42.603Z,7840.00
2019-06-10T11:45:48.073Z,8220.00
2019-06-10T11:46:43.021Z,7980.00
2019-06-10T11:47:42.629Z,7240.00
2019-06-10T11:48:43.451Z,7060.00
2019-06-10T11:49:43.406Z,7404.00
2019-06-10T11:50:42.907Z,7276.00
2019-06-10T11:51:42.193Z,6576.00
2019-06-10T11:52:43.341Z,6396.00
2019-06-10T11:53:44.055Z,6276.00
2019-06-10T11:54:55.689Z,6432.00
2019-06-10T11:55:42.434Z,6644.00
2019-06-10T11:56:42.309Z,6872.00
2019-06-10T11:57:42.475Z,7076.00
2019-06-10T11:58:42.747Z,7096.00
2019-06-10T11:59:43.475Z,6532.00
2019-06-10T12:00:42.699Z,6076.00
2019-06-10T12:01:42.779Z,6008.00
2019-06-10T12:02:42.547Z,5852.00
2019-06-10T12:03:43.229Z,5688.00
2019-06-10T12:04:42.273Z,5460.00
2019-06-10T12:05:42.263Z,5392.00
2019-06-10T12:06:42.701Z,5860.00
2019-06-10T12:07:42.825Z,6352.00
2019-06-10T12:08:43.591Z,6620.00
2019-06-10T12:09:42.591Z,6704.00
2019-06-10T12:10:43.444Z,6456.00
2019-06-10T12:11:43.671Z,5988.00
2019-06-10T12:12:44.148Z,5920.00
2019-06-10T12:13:43.022Z,5776.00
2019-06-10T12:14:43.181Z,5052.00
2019-06-10T12:16:20.847Z,4584.00
2019-06-10T12:17:50.606Z,5020.00
2019-06-10T12:18:42.810Z,5588.00
2019-06-10T12:19:44.160Z,5464.00
2019-06-10T12:22:29.722Z,5124.00
2019-06-10T12:23:33.834Z,5120.00
2019-06-10T12:25:38.769Z,6980.00
2019-06-10T12:26:30.122Z,8080.00
2019-06-10T12:28:24.521Z,9480.00
2019-06-10T12:29:25.204Z,9604.00
2019-06-10T12:31:18.894Z,8752.00
2019-06-10T12:32:19.615Z,8576.00
2019-06-10T12:33:24.799Z,8816.00
2019-06-10T12:34:19.436Z,9016.00
2019-06-10T12:35:18.907Z,9208.00
2019-06-10T12:36:18.916Z,9340.00
2019-06-10T12:37:19.309Z,9384.00
2019-06-10T12:38:18.927Z,9340.00
2019-06-10T12:39:19.377Z,9328.00
2019-06-10T12:40:18.932Z,9224.00
2019-06-10T12:41:18.943Z,9084.00
2019-06-10T12:42:18.960Z,8920.00
2019-06-10T12:43:18.946Z,8876.00
2019-06-10T12:44:18.946Z,8996.00
2019-06-10T12:45:20.341Z,9044.00
2019-06-10T12:46:19.283Z,9084.00
2019-06-10T12:47:22.677Z,9036.00
2019-06-10T12:48:22.039Z,8984.00
2019-06-10T12:49:20.375Z,8852.00
2019-06-10T12:50:18.991Z,8528.00
2019-06-10T12:51:19.108Z,8296.00
2019-06-10T12:52:19.444Z,8196.00
2019-06-10T12:53:18.992Z,8292.00
2019-06-10T12:54:19.006Z,8408.00
2019-06-10T12:55:34.820Z,8544.00
2019-06-10T12:56:19.040Z,8504.00
2019-06-10T12:57:19.060Z,8408.00
2019-06-10T12:58:19.362Z,8476.00
2019-06-10T12:59:20.638Z,8604.00
2019-06-10T13:00:23.842Z,8860.00
2019-06-10T13:01:19.048Z,9084.00
2019-06-10T13:02:30.477Z,9100.00
2019-06-10T13:03:19.367Z,9196.00
2019-06-10T13:04:20.628Z,9360.00
2019-06-10T13:05:22.692Z,9336.00
2019-06-10T13:06:19.162Z,9168.00
2019-06-10T13:07:19.264Z,8968.00
2019-06-10T13:08:20.523Z,8724.00
2019-06-10T13:09:23.555Z,8496.00
2019-06-10T13:10:20.565Z,8316.00
2019-06-10T13:11:19.212Z,8224.00
2019-06-10T13:12:19.209Z,8200.00
2019-06-10T13:13:19.107Z,8244.00
2019-06-10T13:14:19.232Z,8164.00
2019-06-10T13:15:19.132Z,7912.00
2019-06-10T13:16:19.143Z,7744.00
2019-06-10T13:17:20.482Z,7844.00
2019-06-10T13:18:19.717Z,8020.00
2019-06-10T13:19:19.155Z,8224.00
2019-06-10T13:20:22.902Z,8316.00
2019-06-10T13:21:19.156Z,8228.00
2019-06-10T13:22:23.046Z,8092.00
2019-06-10T13:23:26.685Z,7788.00
2019-06-10T13:24:19.177Z,7424.00
2019-06-10T13:25:22.133Z,7176.00
2019-06-10T13:26:19.952Z,7476.00
2019-06-10T13:27:19.734Z,7956.00